sensor_id;sensor_type;location;lat;lon;timestamp;P1;durP1;ratioP1;P2;durP2;ratioP2
17436;SDS011;70275;52.198;5.422;2023-07-13T00:01:37;9.27;;;3.35;;
17436;SDS011;70275;52.198;5.422;2023-07-13T00:04:06;8.55;;;3.25;;
17436;SDS011;70275;52.198;5.422;2023-07-13T00:06:35;13.15;;;3.42;;
17436;SDS011;70275;52.198;5.422;2023-07-13T00:09:04;14.15;;;3.70;;
17436;SDS011;70275;52.198;5.422;2023-07-13T00:11:35;14.05;;;3.92;;
17436;SDS011;70275;52.198;5.422;2023-07-13T00:14:04;12.18;;;3.95;;
17436;SDS011;70275;52.198;5.422;2023-07-13T00:16:33;16.00;;;3.80;;
17436;SDS011;70275;52.198;5.422;2023-07-13T00:19:09;10.68;;;4.07;;
17436;SDS011;70275;52.198;5.422;2023-07-13T00:21:39;13.82;;;3.97;;
17436;SDS011;70275;52.198;5.422;2023-07-13T00:24:10;8.50;;;2.80;;
17436;SDS011;70275;52.198;5.422;2023-07-13T00:26:47;11.63;;;3.22;;
17436;SDS011;70275;52.198;5.422;2023-07-13T00:29:16;14.20;;;3.72;;
17436;SDS011;70275;52.198;5.422;2023-07-13T00:31:48;12.75;;;3.53;;
17436;SDS011;70275;52.198;5.422;2023-07-13T00:34:18;12.43;;;3.45;;
17436;SDS011;70275;52.198;5.422;2023-07-13T00:36:47;14.98;;;3.63;;
17436;SDS011;70275;52.198;5.422;2023-07-13T00:39:16;13.13;;;3.75;;
17436;SDS011;70275;52.198;5.422;2023-07-13T00:41:46;14.80;;;3.97;;
17436;SDS011;70275;52.198;5.422;2023-07-13T00:44:15;11.73;;;3.67;;
17436;SDS011;70275;52.198;5.422;2023-07-13T00:46:50;12.52;;;3.72;;
17436;SDS011;70275;52.198;5.422;2023-07-13T00:49:22;17.58;;;3.85;;
17436;SDS011;70275;52.198;5.422;2023-07-13T00:51:54;10.27;;;3.60;;
17436;SDS011;70275;52.198;5.422;2023-07-13T00:54:28;12.48;;;3.30;;
17436;SDS011;70275;52.198;5.422;2023-07-13T00:57:03;8.38;;;3.25;;
17436;SDS011;70275;52.198;5.422;2023-07-13T00:59:38;6.45;;;3.00;;
17436;SDS011;70275;52.198;5.422;2023-07-13T01:02:16;10.43;;;3.35;;
17436;SDS011;70275;52.198;5.422;2023-07-13T01:04:46;12.77;;;3.83;;
17436;SDS011;70275;52.198;5.422;2023-07-13T01:07:16;13.57;;;3.35;;
17436;SDS011;70275;52.198;5.422;2023-07-13T01:09:47;11.10;;;3.13;;
17436;SDS011;70275;52.198;5.422;2023-07-13T01:12:16;13.57;;;3.67;;
17436;SDS011;70275;52.198;5.422;2023-07-13T01:14:45;8.98;;;2.75;;
17436;SDS011;70275;52.198;5.422;2023-07-13T01:17:17;12.98;;;3.55;;
17436;SDS011;70275;52.198;5.422;2023-07-13T01:19:47;10.82;;;4.00;;
17436;SDS011;70275;52.198;5.422;2023-07-13T01:22:19;8.77;;;3.58;;
17436;SDS011;70275;52.198;5.422;2023-07-13T01:24:52;11.10;;;3.53;;
17436;SDS011;70275;52.198;5.422;2023-07-13T01:27:23;9.82;;;3.45;;
17436;SDS011;70275;52.198;5.422;2023-07-13T01:29:53;9.13;;;2.97;;
17436;SDS011;70275;52.198;5.422;2023-07-13T01:32:27;8.30;;;2.70;;
17436;SDS011;70275;52.198;5.422;2023-07-13T01:34:58;10.60;;;3.88;;
17436;SDS011;70275;52.198;5.422;2023-07-13T01:37:29;12.55;;;3.38;;
17436;SDS011;70275;52.198;5.422;2023-07-13T01:40:01;9.50;;;3.67;;
17436;SDS011;70275;52.198;5.422;2023-07-13T01:42:30;11.50;;;3.35;;
17436;SDS011;70275;52.198;5.422;2023-07-13T01:44:59;11.05;;;4.05;;
17436;SDS011;70275;52.198;5.422;2023-07-13T01:47:29;11.50;;;3.53;;
17436;SDS011;70275;52.198;5.422;2023-07-13T01:49:58;12.02;;;3.30;;
17436;SDS011;70275;52.198;5.422;2023-07-13T01:52:30;11.68;;;4.32;;
17436;SDS011;70275;52.198;5.422;2023-07-13T01:54:59;7.85;;;3.30;;
17436;SDS011;70275;52.198;5.422;2023-07-13T01:57:28;9.48;;;3.25;;
17436;SDS011;70275;52.198;5.422;2023-07-13T01:59:58;9.32;;;2.97;;
17436;SDS011;70275;52.198;5.422;2023-07-13T02:02:28;10.82;;;3.72;;
17436;SDS011;70275;52.198;5.422;2023-07-13T02:04:57;8.93;;;3.95;;
17436;SDS011;70275;52.198;5.422;2023-07-13T02:07:26;15.05;;;3.67;;
17436;SDS011;70275;52.198;5.422;2023-07-13T02:09:58;10.40;;;3.13;;
17436;SDS011;70275;52.198;5.422;2023-07-13T02:12:27;10.13;;;3.42;;
17436;SDS011;70275;52.198;5.422;2023-07-13T02:14:56;14.05;;;5.40;;
17436;SDS011;70275;52.198;5.422;2023-07-13T02:17:25;13.55;;;4.30;;
17436;SDS011;70275;52.198;5.422;2023-07-13T02:19:55;10.73;;;3.85;;
17436;SDS011;70275;52.198;5.422;2023-07-13T02:22:25;8.32;;;3.63;;
17436;SDS011;70275;52.198;5.422;2023-07-13T02:24:57;13.13;;;4.07;;
17436;SDS011;70275;52.198;5.422;2023-07-13T02:27:26;11.73;;;4.32;;
17436;SDS011;70275;52.198;5.422;2023-07-13T02:29:55;8.68;;;3.88;;
17436;SDS011;70275;52.198;5.422;2023-07-13T02:32:24;8.07;;;3.80;;
17436;SDS011;70275;52.198;5.422;2023-07-13T02:34:54;10.40;;;4.10;;
17436;SDS011;70275;52.198;5.422;2023-07-13T02:37:23;10.65;;;4.18;;
17436;SDS011;70275;52.198;5.422;2023-07-13T02:39:52;11.57;;;4.07;;
17436;SDS011;70275;52.198;5.422;2023-07-13T02:42:24;11.30;;;4.53;;
17436;SDS011;70275;52.198;5.422;2023-07-13T02:44:54;9.25;;;4.00;;
17436;SDS011;70275;52.198;5.422;2023-07-13T02:47:23;9.30;;;4.30;;
17436;SDS011;70275;52.198;5.422;2023-07-13T02:49:52;11.50;;;4.40;;
17436;SDS011;70275;52.198;5.422;2023-07-13T02:52:21;13.60;;;4.50;;
17436;SDS011;70275;52.198;5.422;2023-07-13T02:54:51;10.98;;;4.57;;
17436;SDS011;70275;52.198;5.422;2023-07-13T02:57:20;9.65;;;3.97;;
17436;SDS011;70275;52.198;5.422;2023-07-13T02:59:52;8.75;;;4.20;;
17436;SDS011;70275;52.198;5.422;2023-07-13T03:02:21;11.95;;;4.60;;
17436;SDS011;70275;52.198;5.422;2023-07-13T03:04:53;12.38;;;5.05;;
17436;SDS011;70275;52.198;5.422;2023-07-13T03:07:23;15.50;;;5.40;;
17436;SDS011;70275;52.198;5.422;2023-07-13T03:09:53;13.38;;;5.00;;
17436;SDS011;70275;52.198;5.422;2023-07-13T03:12:24;14.30;;;4.75;;
17436;SDS011;70275;52.198;5.422;2023-07-13T03:14:56;12.50;;;4.68;;
17436;SDS011;70275;52.198;5.422;2023-07-13T03:17:26;13.95;;;5.28;;
17436;SDS011;70275;52.198;5.422;2023-07-13T03:19:55;14.88;;;5.50;;
17436;SDS011;70275;52.198;5.422;2023-07-13T03:22:24;13.02;;;4.35;;
17436;SDS011;70275;52.198;5.422;2023-07-13T03:24:54;16.10;;;5.25;;
17436;SDS011;70275;52.198;5.422;2023-07-13T03:27:24;13.52;;;5.13;;
17436;SDS011;70275;52.198;5.422;2023-07-13T03:29:56;14.82;;;5.68;;
17436;SDS011;70275;52.198;5.422;2023-07-13T03:32:25;13.52;;;4.88;;
17436;SDS011;70275;52.198;5.422;2023-07-13T03:34:54;15.38;;;5.32;;
17436;SDS011;70275;52.198;5.422;2023-07-13T03:37:24;14.75;;;5.05;;
17436;SDS011;70275;52.198;5.422;2023-07-13T03:39:53;13.23;;;5.50;;
17436;SDS011;70275;52.198;5.422;2023-07-13T03:42:23;13.00;;;5.65;;
17436;SDS011;70275;52.198;5.422;2023-07-13T03:44:52;16.08;;;5.75;;
17436;SDS011;70275;52.198;5.422;2023-07-13T03:47:24;15.30;;;7.55;;
17436;SDS011;70275;52.198;5.422;2023-07-13T03:49:53;13.93;;;5.35;;
17436;SDS011;70275;52.198;5.422;2023-07-13T03:52:22;16.83;;;5.47;;
17436;SDS011;70275;52.198;5.422;2023-07-13T03:54:52;12.43;;;5.00;;
17436;SDS011;70275;52.198;5.422;2023-07-13T03:57:21;9.27;;;4.97;;
17436;SDS011;70275;52.198;5.422;2023-07-13T03:59:50;13.38;;;4.97;;
17436;SDS011;70275;52.198;5.422;2023-07-13T04:02:22;14.50;;;5.07;;
17436;SDS011;70275;52.198;5.422;2023-07-13T04:04:51;12.00;;;5.40;;
17436;SDS011;70275;52.198;5.422;2023-07-13T04:07:21;13.25;;;5.43;;
17436;SDS011;70275;52.198;5.422;2023-07-13T04:09:50;15.85;;;5.43;;
17436;SDS011;70275;52.198;5.422;2023-07-13T04:12:20;15.25;;;5.40;;
17436;SDS011;70275;52.198;5.422;2023-07-13T04:14:49;19.42;;;6.15;;
17436;SDS011;70275;52.198;5.422;2023-07-13T04:17:22;16.02;;;5.72;;
17436;SDS011;70275;52.198;5.422;2023-07-13T04:19:51;17.92;;;6.07;;
17436;SDS011;70275;52.198;5.422;2023-07-13T04:22:20;19.75;;;5.95;;
17436;SDS011;70275;52.198;5.422;2023-07-13T04:24:49;14.40;;;6.07;;
17436;SDS011;70275;52.198;5.422;2023-07-13T04:27:19;17.05;;;6.80;;
17436;SDS011;70275;52.198;5.422;2023-07-13T04:29:48;17.17;;;6.75;;
17436;SDS011;70275;52.198;5.422;2023-07-13T04:32:17;15.48;;;6.95;;
17436;SDS011;70275;52.198;5.422;2023-07-13T04:34:49;17.02;;;7.32;;
17436;SDS011;70275;52.198;5.422;2023-07-13T04:37:20;16.45;;;7.25;;
17436;SDS011;70275;52.198;5.422;2023-07-13T04:39:50;13.52;;;6.38;;
17436;SDS011;70275;52.198;5.422;2023-07-13T04:42:19;17.25;;;7.70;;
17436;SDS011;70275;52.198;5.422;2023-07-13T04:44:49;17.42;;;7.90;;
17436;SDS011;70275;52.198;5.422;2023-07-13T04:47:19;17.25;;;8.18;;
17436;SDS011;70275;52.198;5.422;2023-07-13T04:49:50;15.95;;;7.90;;
17436;SDS011;70275;52.198;5.422;2023-07-13T04:52:20;21.88;;;7.72;;
17436;SDS011;70275;52.198;5.422;2023-07-13T04:54:49;21.42;;;9.15;;
17436;SDS011;70275;52.198;5.422;2023-07-13T04:57:18;19.20;;;8.43;;
17436;SDS011;70275;52.198;5.422;2023-07-13T04:59:48;23.77;;;9.02;;
17436;SDS011;70275;52.198;5.422;2023-07-13T05:02:17;20.92;;;9.07;;
17436;SDS011;70275;52.198;5.422;2023-07-13T05:04:50;20.40;;;8.85;;
17436;SDS011;70275;52.198;5.422;2023-07-13T05:07:21;18.95;;;8.68;;
17436;SDS011;70275;52.198;5.422;2023-07-13T05:09:50;23.70;;;9.25;;
17436;SDS011;70275;52.198;5.422;2023-07-13T05:12:20;24.98;;;10.65;;
17436;SDS011;70275;52.198;5.422;2023-07-13T05:14:49;26.58;;;10.82;;
17436;SDS011;70275;52.198;5.422;2023-07-13T05:17:18;25.38;;;12.45;;
17436;SDS011;70275;52.198;5.422;2023-07-13T05:19:47;26.73;;;11.32;;
17436;SDS011;70275;52.198;5.422;2023-07-13T05:22:19;22.02;;;10.40;;
17436;SDS011;70275;52.198;5.422;2023-07-13T05:24:48;18.90;;;10.00;;
17436;SDS011;70275;52.198;5.422;2023-07-13T05:27:18;23.08;;;10.73;;
17436;SDS011;70275;52.198;5.422;2023-07-13T05:29:47;26.80;;;12.68;;
17436;SDS011;70275;52.198;5.422;2023-07-13T05:32:17;25.42;;;12.13;;
17436;SDS011;70275;52.198;5.422;2023-07-13T05:34:46;31.27;;;12.90;;
17436;SDS011;70275;52.198;5.422;2023-07-13T05:37:18;27.10;;;13.15;;
17436;SDS011;70275;52.198;5.422;2023-07-13T05:39:47;25.58;;;12.57;;
17436;SDS011;70275;52.198;5.422;2023-07-13T05:42:16;21.55;;;12.65;;
17436;SDS011;70275;52.198;5.422;2023-07-13T05:44:45;23.63;;;12.55;;
17436;SDS011;70275;52.198;5.422;2023-07-13T05:47:15;23.67;;;12.38;;
17436;SDS011;70275;52.198;5.422;2023-07-13T05:49:44;26.45;;;12.63;;
17436;SDS011;70275;52.198;5.422;2023-07-13T05:52:13;25.23;;;11.98;;
17436;SDS011;70275;52.198;5.422;2023-07-13T05:54:45;28.65;;;11.43;;
17436;SDS011;70275;52.198;5.422;2023-07-13T05:57:14;20.88;;;11.48;;
17436;SDS011;70275;52.198;5.422;2023-07-13T05:59:43;23.13;;;11.68;;
17436;SDS011;70275;52.198;5.422;2023-07-13T06:02:13;23.25;;;11.73;;
17436;SDS011;70275;52.198;5.422;2023-07-13T06:04:42;22.40;;;12.80;;
17436;SDS011;70275;52.198;5.422;2023-07-13T06:07:12;22.88;;;12.10;;
17436;SDS011;70275;52.198;5.422;2023-07-13T06:09:41;25.67;;;13.88;;
17436;SDS011;70275;52.198;5.422;2023-07-13T06:12:13;26.48;;;12.88;;
17436;SDS011;70275;52.198;5.422;2023-07-13T06:14:42;18.65;;;12.38;;
17436;SDS011;70275;52.198;5.422;2023-07-13T06:17:11;23.42;;;12.88;;
17436;SDS011;70275;52.198;5.422;2023-07-13T06:19:40;20.45;;;12.27;;
17436;SDS011;70275;52.198;5.422;2023-07-13T06:22:10;21.25;;;11.90;;
17436;SDS011;70275;52.198;5.422;2023-07-13T06:24:39;19.13;;;11.88;;
17436;SDS011;70275;52.198;5.422;2023-07-13T06:27:11;20.70;;;11.95;;
17436;SDS011;70275;52.198;5.422;2023-07-13T06:29:41;25.05;;;12.52;;
17436;SDS011;70275;52.198;5.422;2023-07-13T06:32:10;19.42;;;11.00;;
17436;SDS011;70275;52.198;5.422;2023-07-13T06:34:39;23.27;;;12.07;;
17436;SDS011;70275;52.198;5.422;2023-07-13T06:37:08;23.45;;;11.50;;
17436;SDS011;70275;52.198;5.422;2023-07-13T06:39:38;24.42;;;11.70;;
17436;SDS011;70275;52.198;5.422;2023-07-13T06:42:07;21.73;;;11.20;;
17436;SDS011;70275;52.198;5.422;2023-07-13T06:44:39;22.05;;;10.30;;
17436;SDS011;70275;52.198;5.422;2023-07-13T06:47:08;15.73;;;8.60;;
17436;SDS011;70275;52.198;5.422;2023-07-13T06:49:37;19.63;;;9.77;;
17436;SDS011;70275;52.198;5.422;2023-07-13T06:52:06;17.60;;;10.30;;
17436;SDS011;70275;52.198;5.422;2023-07-13T06:54:36;24.77;;;11.32;;
17436;SDS011;70275;52.198;5.422;2023-07-13T06:57:05;20.67;;;10.75;;
17436;SDS011;70275;52.198;5.422;2023-07-13T06:59:37;20.38;;;11.27;;
17436;SDS011;70275;52.198;5.422;2023-07-13T07:02:07;16.13;;;9.93;;
17436;SDS011;70275;52.198;5.422;2023-07-13T07:04:38;17.17;;;9.90;;
17436;SDS011;70275;52.198;5.422;2023-07-13T07:07:08;20.75;;;10.10;;
17436;SDS011;70275;52.198;5.422;2023-07-13T07:09:37;18.50;;;9.55;;
17436;SDS011;70275;52.198;5.422;2023-07-13T07:12:07;17.52;;;9.40;;
17436;SDS011;70275;52.198;5.422;2023-07-13T07:14:39;19.52;;;10.55;;
17436;SDS011;70275;52.198;5.422;2023-07-13T07:17:08;17.23;;;9.77;;
17436;SDS011;70275;52.198;5.422;2023-07-13T07:19:37;22.35;;;11.25;;
17436;SDS011;70275;52.198;5.422;2023-07-13T07:22:07;18.52;;;11.02;;
17436;SDS011;70275;52.198;5.422;2023-07-13T07:24:36;26.77;;;11.55;;
17436;SDS011;70275;52.198;5.422;2023-07-13T07:27:05;24.85;;;11.45;;
17436;SDS011;70275;52.198;5.422;2023-07-13T07:29:35;19.35;;;12.10;;
17436;SDS011;70275;52.198;5.422;2023-07-13T07:32:07;17.45;;;11.90;;
17436;SDS011;70275;52.198;5.422;2023-07-13T07:34:36;23.30;;;14.60;;
17436;SDS011;70275;52.198;5.422;2023-07-13T07:37:09;21.65;;;13.60;;
17436;SDS011;70275;52.198;5.422;2023-07-13T07:39:42;26.15;;;14.50;;
17436;SDS011;70275;52.198;5.422;2023-07-13T07:42:12;21.55;;;13.52;;
17436;SDS011;70275;52.198;5.422;2023-07-13T07:44:41;25.13;;;14.93;;
17436;SDS011;70275;52.198;5.422;2023-07-13T07:47:12;18.35;;;10.40;;
17436;SDS011;70275;52.198;5.422;2023-07-13T07:49:42;17.45;;;9.88;;
17436;SDS011;70275;52.198;5.422;2023-07-13T07:52:11;16.13;;;9.80;;
17436;SDS011;70275;52.198;5.422;2023-07-13T07:54:40;14.75;;;10.05;;
17436;SDS011;70275;52.198;5.422;2023-07-13T07:57:09;15.35;;;9.98;;
17436;SDS011;70275;52.198;5.422;2023-07-13T07:59:38;15.73;;;9.55;;
17436;SDS011;70275;52.198;5.422;2023-07-13T08:02:08;15.48;;;10.00;;
17436;SDS011;70275;52.198;5.422;2023-07-13T08:04:41;18.35;;;10.60;;
17436;SDS011;70275;52.198;5.422;2023-07-13T08:07:11;17.45;;;9.95;;
17436;SDS011;70275;52.198;5.422;2023-07-13T08:09:40;14.98;;;9.52;;
17436;SDS011;70275;52.198;5.422;2023-07-13T08:12:09;23.88;;;14.05;;
17436;SDS011;70275;52.198;5.422;2023-07-13T08:14:38;23.10;;;15.57;;
17436;SDS011;70275;52.198;5.422;2023-07-13T08:17:07;20.17;;;14.20;;
17436;SDS011;70275;52.198;5.422;2023-07-13T08:19:39;20.50;;;13.25;;
17436;SDS011;70275;52.198;5.422;2023-07-13T08:22:08;19.98;;;11.65;;
17436;SDS011;70275;52.198;5.422;2023-07-13T08:24:38;20.65;;;11.90;;
17436;SDS011;70275;52.198;5.422;2023-07-13T08:27:07;19.77;;;11.32;;
17436;SDS011;70275;52.198;5.422;2023-07-13T08:29:36;17.33;;;10.27;;
17436;SDS011;70275;52.198;5.422;2023-07-13T08:32:07;16.05;;;8.52;;
17436;SDS011;70275;52.198;5.422;2023-07-13T08:34:39;12.90;;;7.60;;
17436;SDS011;70275;52.198;5.422;2023-07-13T08:37:08;14.13;;;6.53;;
17436;SDS011;70275;52.198;5.422;2023-07-13T08:39:38;11.20;;;6.07;;
17436;SDS011;70275;52.198;5.422;2023-07-13T08:42:11;14.40;;;7.13;;
17436;SDS011;70275;52.198;5.422;2023-07-13T08:44:59;15.48;;;7.32;;
17436;SDS011;70275;52.198;5.422;2023-07-13T08:47:43;15.60;;;9.43;;
17436;SDS011;70275;52.198;5.422;2023-07-13T08:50:25;14.85;;;9.63;;
17436;SDS011;70275;52.198;5.422;2023-07-13T08:53:01;19.85;;;11.35;;
17436;SDS011;70275;52.198;5.422;2023-07-13T08:55:33;16.60;;;8.55;;
17436;SDS011;70275;52.198;5.422;2023-07-13T08:58:07;10.25;;;7.25;;
17436;SDS011;70275;52.198;5.422;2023-07-13T09:00:44;7.15;;;4.90;;
17436;SDS011;70275;52.198;5.422;2023-07-13T09:03:28;6.55;;;3.97;;
17436;SDS011;70275;52.198;5.422;2023-07-13T09:06:08;7.43;;;4.20;;
17436;SDS011;70275;52.198;5.422;2023-07-13T09:08:46;8.90;;;4.07;;
17436;SDS011;70275;52.198;5.422;2023-07-13T09:11:29;5.45;;;3.08;;
17436;SDS011;70275;52.198;5.422;2023-07-13T09:14:19;7.03;;;3.60;;
17436;SDS011;70275;52.198;5.422;2023-07-13T09:17:10;5.15;;;3.55;;
17436;SDS011;70275;52.198;5.422;2023-07-13T09:19:46;5.68;;;3.78;;
17436;SDS011;70275;52.198;5.422;2023-07-13T09:22:27;6.78;;;4.00;;
17436;SDS011;70275;52.198;5.422;2023-07-13T09:25:05;5.38;;;3.97;;
17436;SDS011;70275;52.198;5.422;2023-07-13T09:27:49;6.50;;;3.55;;
17436;SDS011;70275;52.198;5.422;2023-07-13T09:30:30;7.63;;;4.00;;
17436;SDS011;70275;52.198;5.422;2023-07-13T09:33:10;7.28;;;4.05;;
17436;SDS011;70275;52.198;5.422;2023-07-13T09:35:39;6.10;;;4.40;;
17436;SDS011;70275;52.198;5.422;2023-07-13T09:38:14;7.63;;;4.70;;
17436;SDS011;70275;52.198;5.422;2023-07-13T09:40:50;7.15;;;4.72;;
17436;SDS011;70275;52.198;5.422;2023-07-13T09:46:30;6.80;;;5.55;;
17436;SDS011;70275;52.198;5.422;2023-07-13T09:48:59;7.93;;;5.90;;
17436;SDS011;70275;52.198;5.422;2023-07-13T09:51:28;11.18;;;6.28;;
17436;SDS011;70275;52.198;5.422;2023-07-13T09:54:00;13.23;;;8.50;;
17436;SDS011;70275;52.198;5.422;2023-07-13T09:56:30;11.27;;;8.68;;
17436;SDS011;70275;52.198;5.422;2023-07-13T09:59:00;13.65;;;6.32;;
17436;SDS011;70275;52.198;5.422;2023-07-13T10:01:32;7.95;;;5.43;;
17436;SDS011;70275;52.198;5.422;2023-07-13T10:04:10;9.27;;;6.40;;
17436;SDS011;70275;52.198;5.422;2023-07-13T10:06:41;9.73;;;5.47;;
17436;SDS011;70275;52.198;5.422;2023-07-13T10:09:15;7.10;;;4.50;;
17436;SDS011;70275;52.198;5.422;2023-07-13T10:11:45;5.82;;;3.63;;
17436;SDS011;70275;52.198;5.422;2023-07-13T10:14:20;5.82;;;3.10;;
17436;SDS011;70275;52.198;5.422;2023-07-13T10:16:52;6.03;;;3.30;;
17436;SDS011;70275;52.198;5.422;2023-07-13T10:19:27;5.57;;;4.10;;
17436;SDS011;70275;52.198;5.422;2023-07-13T10:22:07;6.13;;;4.15;;
17436;SDS011;70275;52.198;5.422;2023-07-13T10:24:54;9.43;;;4.40;;
17436;SDS011;70275;52.198;5.422;2023-07-13T10:27:26;3.90;;;3.30;;
17436;SDS011;70275;52.198;5.422;2023-07-13T10:30:06;9.65;;;4.20;;
17436;SDS011;70275;52.198;5.422;2023-07-13T10:32:45;6.93;;;4.30;;
17436;SDS011;70275;52.198;5.422;2023-07-13T10:35:16;6.75;;;4.22;;
17436;SDS011;70275;52.198;5.422;2023-07-13T10:37:49;7.13;;;4.20;;
17436;SDS011;70275;52.198;5.422;2023-07-13T10:40:29;7.90;;;5.00;;
17436;SDS011;70275;52.198;5.422;2023-07-13T10:43:04;9.35;;;4.65;;
17436;SDS011;70275;52.198;5.422;2023-07-13T10:45:43;9.07;;;4.85;;
17436;SDS011;70275;52.198;5.422;2023-07-13T10:48:16;8.00;;;4.70;;
17436;SDS011;70275;52.198;5.422;2023-07-13T10:50:49;7.45;;;4.40;;
17436;SDS011;70275;52.198;5.422;2023-07-13T10:53:28;10.50;;;4.22;;
17436;SDS011;70275;52.198;5.422;2023-07-13T10:56:02;8.00;;;3.72;;
17436;SDS011;70275;52.198;5.422;2023-07-13T10:58:36;5.68;;;3.60;;
17436;SDS011;70275;52.198;5.422;2023-07-13T11:01:08;9.20;;;3.85;;
17436;SDS011;70275;52.198;5.422;2023-07-13T11:03:47;7.07;;;4.68;;
17436;SDS011;70275;52.198;5.422;2023-07-13T11:06:33;7.85;;;4.22;;
17436;SDS011;70275;52.198;5.422;2023-07-13T11:09:19;8.15;;;5.22;;
17436;SDS011;70275;52.198;5.422;2023-07-13T11:12:09;13.43;;;7.18;;
17436;SDS011;70275;52.198;5.422;2023-07-13T11:15:10;11.57;;;6.05;;
17436;SDS011;70275;52.198;5.422;2023-07-13T11:17:48;5.53;;;3.78;;
17436;SDS011;70275;52.198;5.422;2023-07-13T11:20:30;4.95;;;3.40;;
17436;SDS011;70275;52.198;5.422;2023-07-13T11:23:07;5.32;;;3.85;;
17436;SDS011;70275;52.198;5.422;2023-07-13T11:25:56;6.50;;;3.70;;
17436;SDS011;70275;52.198;5.422;2023-07-13T11:28:29;7.05;;;4.63;;
17436;SDS011;70275;52.198;5.422;2023-07-13T11:31:01;6.15;;;4.20;;
17436;SDS011;70275;52.198;5.422;2023-07-13T11:33:51;6.90;;;4.40;;
17436;SDS011;70275;52.198;5.422;2023-07-13T11:36:30;9.50;;;5.72;;
17436;SDS011;70275;52.198;5.422;2023-07-13T11:39:11;7.00;;;4.53;;
17436;SDS011;70275;52.198;5.422;2023-07-13T11:41:49;9.40;;;5.43;;
17436;SDS011;70275;52.198;5.422;2023-07-13T11:44:26;8.00;;;5.00;;
17436;SDS011;70275;52.198;5.422;2023-07-13T11:46:58;11.52;;;5.63;;
17436;SDS011;70275;52.198;5.422;2023-07-13T11:49:41;10.32;;;5.50;;
17436;SDS011;70275;52.198;5.422;2023-07-13T11:52:14;9.82;;;5.63;;
17436;SDS011;70275;52.198;5.422;2023-07-13T11:54:46;9.55;;;5.53;;
17436;SDS011;70275;52.198;5.422;2023-07-13T11:57:22;8.52;;;5.10;;
17436;SDS011;70275;52.198;5.422;2023-07-13T12:00:00;6.80;;;4.50;;
17436;SDS011;70275;52.198;5.422;2023-07-13T12:02:33;9.10;;;4.20;;
17436;SDS011;70275;52.198;5.422;2023-07-13T12:05:09;8.48;;;4.47;;
17436;SDS011;70275;52.198;5.422;2023-07-13T12:07:42;5.28;;;3.70;;
17436;SDS011;70275;52.198;5.422;2023-07-13T12:10:16;7.40;;;4.20;;
17436;SDS011;70275;52.198;5.422;2023-07-13T12:12:51;5.80;;;3.42;;
17436;SDS011;70275;52.198;5.422;2023-07-13T12:15:28;8.13;;;4.00;;
17436;SDS011;70275;52.198;5.422;2023-07-13T12:18:11;6.90;;;3.90;;
17436;SDS011;70275;52.198;5.422;2023-07-13T12:20:43;8.05;;;3.75;;
17436;SDS011;70275;52.198;5.422;2023-07-13T12:23:19;5.25;;;3.15;;
17436;SDS011;70275;52.198;5.422;2023-07-13T12:25:53;6.55;;;3.10;;
17436;SDS011;70275;52.198;5.422;2023-07-13T12:28:30;7.60;;;3.45;;
17436;SDS011;70275;52.198;5.422;2023-07-13T12:31:06;8.05;;;3.28;;
17436;SDS011;70275;52.198;5.422;2023-07-13T12:33:59;7.22;;;3.22;;
17436;SDS011;70275;52.198;5.422;2023-07-13T12:36:32;6.45;;;3.25;;
17436;SDS011;70275;52.198;5.422;2023-07-13T12:39:10;4.43;;;3.10;;
17436;SDS011;70275;52.198;5.422;2023-07-13T12:41:44;7.18;;;3.20;;
17436;SDS011;70275;52.198;5.422;2023-07-13T12:44:15;6.43;;;2.60;;
17436;SDS011;70275;52.198;5.422;2023-07-13T12:46:57;7.28;;;2.70;;
17436;SDS011;70275;52.198;5.422;2023-07-13T12:49:40;5.63;;;2.97;;
17436;SDS011;70275;52.198;5.422;2023-07-13T12:52:16;6.40;;;2.97;;
17436;SDS011;70275;52.198;5.422;2023-07-13T12:54:53;6.65;;;3.05;;
17436;SDS011;70275;52.198;5.422;2023-07-13T12:57:25;3.42;;;2.60;;
17436;SDS011;70275;52.198;5.422;2023-07-13T12:59:55;6.88;;;2.60;;
17436;SDS011;70275;52.198;5.422;2023-07-13T13:02:29;7.80;;;2.58;;
17436;SDS011;70275;52.198;5.422;2023-07-13T13:05:01;6.55;;;2.58;;
17436;SDS011;70275;52.198;5.422;2023-07-13T13:07:32;5.43;;;2.55;;
17436;SDS011;70275;52.198;5.422;2023-07-13T13:10:04;6.00;;;2.72;;
17436;SDS011;70275;52.198;5.422;2023-07-13T13:12:40;4.18;;;2.30;;
17436;SDS011;70275;52.198;5.422;2023-07-13T13:15:10;8.50;;;2.90;;
17436;SDS011;70275;52.198;5.422;2023-07-13T13:17:44;4.75;;;2.67;;
17436;SDS011;70275;52.198;5.422;2023-07-13T13:20:14;5.32;;;2.85;;
17436;SDS011;70275;52.198;5.422;2023-07-13T13:22:45;6.07;;;3.10;;
17436;SDS011;70275;52.198;5.422;2023-07-13T13:25:14;5.80;;;2.70;;
17436;SDS011;70275;52.198;5.422;2023-07-13T13:27:44;4.95;;;2.83;;
17436;SDS011;70275;52.198;5.422;2023-07-13T13:30:15;6.97;;;3.22;;
17436;SDS011;70275;52.198;5.422;2023-07-13T13:32:49;4.60;;;3.30;;
17436;SDS011;70275;52.198;5.422;2023-07-13T13:35:19;5.32;;;3.05;;
17436;SDS011;70275;52.198;5.422;2023-07-13T13:37:52;5.70;;;2.95;;
17436;SDS011;70275;52.198;5.422;2023-07-13T13:40:21;5.07;;;2.90;;
17436;SDS011;70275;52.198;5.422;2023-07-13T13:42:52;5.38;;;3.13;;
17436;SDS011;70275;52.198;5.422;2023-07-13T13:45:22;7.60;;;3.65;;
17436;SDS011;70275;52.198;5.422;2023-07-13T13:47:54;5.35;;;3.00;;
17436;SDS011;70275;52.198;5.422;2023-07-13T13:50:24;9.07;;;3.60;;
17436;SDS011;70275;52.198;5.422;2023-07-13T13:52:53;6.50;;;3.42;;
17436;SDS011;70275;52.198;5.422;2023-07-13T13:55:22;5.82;;;2.83;;
17436;SDS011;70275;52.198;5.422;2023-07-13T13:57:51;7.03;;;3.20;;
17436;SDS011;70275;52.198;5.422;2023-07-13T14:00:21;6.03;;;3.13;;
17436;SDS011;70275;52.198;5.422;2023-07-13T14:02:50;5.78;;;3.22;;
17436;SDS011;70275;52.198;5.422;2023-07-13T14:05:23;5.05;;;2.70;;
17436;SDS011;70275;52.198;5.422;2023-07-13T14:07:54;6.65;;;3.38;;
17436;SDS011;70275;52.198;5.422;2023-07-13T14:10:25;5.70;;;2.90;;
17436;SDS011;70275;52.198;5.422;2023-07-13T14:12:56;4.97;;;3.25;;
17436;SDS011;70275;52.198;5.422;2023-07-13T14:15:27;4.65;;;2.50;;
17436;SDS011;70275;52.198;5.422;2023-07-13T14:18:01;4.22;;;2.83;;
17436;SDS011;70275;52.198;5.422;2023-07-13T14:20:30;3.83;;;2.80;;
17436;SDS011;70275;52.198;5.422;2023-07-13T14:22:59;4.43;;;2.70;;
17436;SDS011;70275;52.198;5.422;2023-07-13T14:25:29;6.78;;;2.70;;
17436;SDS011;70275;52.198;5.422;2023-07-13T14:27:58;6.35;;;2.90;;
17436;SDS011;70275;52.198;5.422;2023-07-13T14:30:33;4.65;;;2.88;;
17436;SDS011;70275;52.198;5.422;2023-07-13T14:33:07;4.18;;;2.53;;
17436;SDS011;70275;52.198;5.422;2023-07-13T14:35:37;5.25;;;2.60;;
17436;SDS011;70275;52.198;5.422;2023-07-13T14:38:08;6.13;;;2.85;;
17436;SDS011;70275;52.198;5.422;2023-07-13T14:40:42;3.80;;;2.45;;
17436;SDS011;70275;52.198;5.422;2023-07-13T14:43:11;3.42;;;2.30;;
17436;SDS011;70275;52.198;5.422;2023-07-13T14:45:43;4.97;;;2.70;;
17436;SDS011;70275;52.198;5.422;2023-07-13T14:48:20;4.78;;;2.42;;
17436;SDS011;70275;52.198;5.422;2023-07-13T14:50:53;4.32;;;2.25;;
17436;SDS011;70275;52.198;5.422;2023-07-13T14:53:26;4.47;;;2.33;;
17436;SDS011;70275;52.198;5.422;2023-07-13T14:55:55;4.47;;;2.60;;
17436;SDS011;70275;52.198;5.422;2023-07-13T14:58:25;3.25;;;2.30;;
17436;SDS011;70275;52.198;5.422;2023-07-13T15:00:54;4.93;;;2.38;;
17436;SDS011;70275;52.198;5.422;2023-07-13T15:03:26;4.72;;;2.20;;
17436;SDS011;70275;52.198;5.422;2023-07-13T15:05:55;3.00;;;2.20;;
17436;SDS011;70275;52.198;5.422;2023-07-13T15:08:25;3.40;;;2.08;;
17436;SDS011;70275;52.198;5.422;2023-07-13T15:10:54;4.35;;;2.33;;